Terminal Aerodrome Forecast
Issued by NWS Paducah, KY

Home | Current Version | Previous Version | Graphics & Text | Print | Product List | Glossary On
Versions: 1 2 3 4 5 6 7 8 9 10 11 12 13 14 15 16 17 18 19
015
FTUS43 KPAH 222138 AAB
TAFPAH
TAF AMD
KPAH 222138Z 2222/2318 24013G24KT 2SM SHRA BR SCT029 OVC035
     FM222230 17009KT 4SM -SHRA BR OVC020
     FM230000 32009KT 5SM -SHRA BR OVC012
     FM230800 32009KT P6SM SCT015 OVC030
     FM231400 30008KT P6SM BKN060=

USA.gov is the U.S. government's official web portal to all federal, state and local government web resources and services.